Time;durP1;ratioP1;P1;durP2;ratioP2;P2;SDS_P1;SDS_P2;PMS_P1;PMS_P2;Temp;Humidity;BMP_temperature;BMP_pressure;BME280_temperature;BME280_humidity;BME280_pressure;Samples;Min_cycle;Max_cycle;Signal;HPM_P1;HPM_P2
2021/08/01 00:01:39;;;;;;;6.10;1.40;;;20.80;60.00;;;;;;6243271;28;20030;-74
2021/08/01 00:04:41;;;;;;;3.05;1.15;;;20.70;59.80;;;;;;6227425;28;20042;-73
2021/08/01 00:07:42;;;;;;;2.17;1.30;;;20.70;59.80;;;;;;6227249;28;20034;-73
2021/08/01 00:10:44;;;;;;;3.17;1.27;;;20.70;60.70;;;;;;6226816;28;20100;-73
2021/08/01 00:13:45;;;;;;;4.03;1.40;;;20.60;60.10;;;;;;6227441;28;20049;-73
2021/08/01 00:16:46;;;;;;;2.08;1.40;;;20.60;60.30;;;;;;6227310;28;20034;-74
2021/08/01 00:19:47;;;;;;;3.72;1.63;;;20.60;60.20;;;;;;6243119;28;20135;-73
2021/08/01 00:22:48;;;;;;;3.15;1.88;;;20.60;60.30;;;;;;6209704;28;20430;-73
2021/08/01 00:25:49;;;;;;;3.03;1.65;;;20.70;60.60;;;;;;6227250;28;20076;-75
2021/08/01 00:28:50;;;;;;;3.63;1.52;;;20.70;61.10;;;;;;6225248;28;20387;-73
2021/08/01 00:31:51;;;;;;;4.13;1.92;;;20.80;61.40;;;;;;6226555;28;20041;-76
2021/08/01 00:34:52;;;;;;;3.55;1.45;;;20.80;61.00;;;;;;6227011;28;20042;-73
2021/08/01 00:37:53;;;;;;;2.95;1.60;;;20.80;60.20;;;;;;6226181;28;20308;-74
2021/08/01 00:40:55;;;;;;;2.67;1.45;;;20.90;60.40;;;;;;6226490;28;20037;-74
2021/08/01 00:43:56;;;;;;;3.03;1.73;;;20.90;60.80;;;;;;6226036;28;20053;-74
2021/08/01 00:46:57;;;;;;;2.90;1.45;;;20.90;60.90;;;;;;6225457;28;20112;-75
2021/08/01 00:50:05;;;;;;;3.40;1.67;;;20.90;60.40;;;;;;6242689;28;20455;-74
2021/08/01 00:53:08;;;;;;;3.03;1.70;;;20.90;60.40;;;;;;6241860;28;20485;-74
2021/08/01 00:56:10;;;;;;;3.35;1.67;;;21.00;60.30;;;;;;6226455;28;20437;-74
2021/08/01 00:59:11;;;;;;;2.03;1.30;;;21.00;60.10;;;;;;6241894;28;20057;-74
2021/08/01 01:02:18;;;;;;;2.05;1.60;;;21.00;60.00;;;;;;6225259;28;20117;-74
2021/08/01 01:05:26;;;;;;;2.67;1.60;;;21.00;59.90;;;;;;6242635;28;20386;-73
2021/08/01 01:08:55;;;;;;;4.60;1.45;;;20.90;59.60;;;;;;6241897;28;20046;-74
2021/08/01 01:12:20;;;;;;;1.85;1.40;;;20.90;59.00;;;;;;6226365;28;20046;-74
2021/08/01 01:15:27;;;;;;;1.95;1.45;;;20.90;58.40;;;;;;6241937;28;20101;-74
2021/08/01 01:19:00;;;;;;;1.98;1.40;;;20.90;57.90;;;;;;6226432;28;20183;-74
2021/08/01 01:22:15;;;;;;;2.13;1.23;;;20.90;57.60;;;;;;6153431;29;20031;-74
2021/08/01 01:25:54;;;;;;;1.65;0.93;;;20.90;57.30;;;;;;6150784;29;20043;-74
2021/08/01 01:29:11;;;;;;;1.67;1.30;;;20.90;56.90;;;;;;6135148;29;20039;-75
2021/08/01 01:32:19;;;;;;;2.75;1.40;;;20.90;56.70;;;;;;6151532;29;20461;-74
2021/08/01 01:35:21;;;;;;;2.03;1.10;;;20.90;56.60;;;;;;6150341;29;20043;-74
2021/08/01 01:38:24;;;;;;;3.47;1.60;;;20.90;56.70;;;;;;6153910;29;20070;-74
2021/08/01 01:41:46;;;;;;;2.92;1.73;;;20.80;56.70;;;;;;6149698;29;20480;-74
2021/08/01 01:44:52;;;;;;;2.47;1.10;;;20.80;56.80;;;;;;6150020;29;20051;-74
2021/08/01 01:47:55;;;;;;;3.90;1.50;;;20.80;56.60;;;;;;6133912;29;20453;-74
2021/08/01 01:50:58;;;;;;;2.65;1.35;;;20.80;56.50;;;;;;6118304;29;20535;-74
2021/08/01 01:54:00;;;;;;;1.65;1.35;;;20.80;56.50;;;;;;6149741;29;20445;-74
2021/08/01 01:57:05;;;;;;;2.38;1.20;;;20.80;56.20;;;;;;6180674;28;20130;-74
2021/08/01 02:00:10;;;;;;;2.87;1.30;;;20.80;56.10;;;;;;6223061;28;20093;-74
2021/08/01 02:03:20;;;;;;;2.13;1.13;;;20.80;55.90;;;;;;6222900;28;20265;-74
2021/08/01 02:06:40;;;;;;;4.43;1.58;;;20.80;55.70;;;;;;6223667;28;20033;-74
2021/08/01 02:09:54;;;;;;;;;;;20.70;55.70;;;;;;6241922;28;20076;-74
2021/08/01 02:13:00;;;;;;;3.60;1.23;;;20.70;55.70;;;;;;6235279;28;19914;-74
2021/08/01 02:16:09;;;;;;;5.15;1.50;;;20.70;55.40;;;;;;6253614;28;20038;-74
2021/08/01 02:19:14;;;;;;;2.42;1.30;;;20.70;55.40;;;;;;6242422;28;20044;-74
2021/08/01 02:22:21;;;;;;;4.45;1.38;;;20.70;55.30;;;;;;6239419;28;20049;-74
2021/08/01 02:25:24;;;;;;;4.57;1.48;;;20.70;55.10;;;;;;6238338;28;20049;-74
2021/08/01 02:28:27;;;;;;;1.92;1.23;;;20.70;55.20;;;;;;6238988;28;20046;-74
2021/08/01 02:31:29;;;;;;;1.38;0.90;;;20.70;55.10;;;;;;6239352;28;20417;-74
2021/08/01 02:34:31;;;;;;;7.00;1.33;;;20.70;55.00;;;;;;6239891;28;20358;-74
2021/08/01 02:37:35;;;;;;;4.78;1.70;;;20.70;54.80;;;;;;6238864;28;20109;-74
2021/08/01 02:40:38;;;;;;;3.25;1.48;;;20.70;54.80;;;;;;6244121;28;20427;-74
2021/08/01 02:43:41;;;;;;;3.20;1.58;;;20.70;54.60;;;;;;6247340;28;20037;-74
2021/08/01 02:46:44;;;;;;;4.47;1.30;;;20.70;54.60;;;;;;6247309;28;20061;-74
2021/08/01 02:49:50;;;;;;;3.17;1.38;;;20.70;54.50;;;;;;6246747;28;20038;-75
2021/08/01 02:52:58;;;;;;;4.80;1.40;;;20.70;54.40;;;;;;6245995;28;20403;-73
2021/08/01 02:56:03;;;;;;;1.98;1.20;;;20.70;55.00;;;;;;6231987;28;20026;-73
2021/08/01 02:59:06;;;;;;;1.77;1.30;;;20.70;54.40;;;;;;6246590;28;20034;-74
2021/08/01 03:02:10;;;;;;;3.15;1.45;;;20.70;54.20;;;;;;6246934;28;20030;-74
2021/08/01 03:05:20;;;;;;;3.90;1.38;;;20.80;54.20;;;;;;6247563;28;20431;-75
2021/08/01 03:08:23;;;;;;;4.10;1.15;;;20.80;54.00;;;;;;6230350;28;20462;-74
2021/08/01 03:11:24;;;;;;;7.75;1.63;;;20.80;54.00;;;;;;6231289;28;20030;-74
2021/08/01 03:14:27;;;;;;;2.88;1.50;;;20.80;53.90;;;;;;6230170;28;20037;-74
2021/08/01 03:17:29;;;;;;;1.90;1.45;;;20.80;53.80;;;;;;6230590;28;20123;-75
2021/08/01 03:20:30;;;;;;;7.63;1.80;;;20.80;53.70;;;;;;6230202;28;20370;-75
2021/08/01 03:23:49;;;;;;;2.88;1.35;;;20.80;53.80;;;;;;6227503;28;20037;-75
2021/08/01 03:27:19;;;;;;;1.48;1.17;;;20.80;53.70;;;;;;6244431;28;20115;-74
2021/08/01 03:30:21;;;;;;;5.82;1.73;;;20.80;53.50;;;;;;6229069;28;20096;-74
2021/08/01 03:33:22;;;;;;;4.35;1.95;;;20.80;53.60;;;;;;6227682;28;20044;-75
2021/08/01 03:36:23;;;;;;;3.15;1.90;;;20.80;53.50;;;;;;6229567;28;20467;-74
2021/08/01 03:39:42;;;;;;;3.28;1.50;;;20.90;53.50;;;;;;6228005;28;20112;-74
2021/08/01 03:42:45;;;;;;;2.30;1.60;;;20.90;53.50;;;;;;6244179;28;20034;-74
2021/08/01 03:45:46;;;;;;;3.17;1.95;;;20.90;53.40;;;;;;6228906;28;20038;-74
2021/08/01 03:48:47;;;;;;;6.10;1.73;;;20.90;53.40;;;;;;6228750;28;20038;-75
2021/08/01 03:51:48;;;;;;;2.10;1.33;;;20.90;53.30;;;;;;6225541;28;20034;-75
2021/08/01 03:54:51;;;;;;;5.30;1.60;;;20.90;53.40;;;;;;6224762;28;20057;-75
2021/08/01 03:57:52;;;;;;;1.83;1.60;;;20.90;53.30;;;;;;6224654;28;20144;-75
2021/08/01 04:00:53;;;;;;;3.80;1.90;;;21.00;53.30;;;;;;6225110;28;20168;-74
2021/08/01 04:03:54;;;;;;;2.28;1.55;;;20.90;53.20;;;;;;6222324;28;20030;-74
2021/08/01 04:06:55;;;;;;;6.75;2.20;;;20.90;53.30;;;;;;6240693;28;20056;-74
2021/08/01 04:09:57;;;;;;;3.60;1.75;;;20.90;53.20;;;;;;6223171;28;20042;-74
2021/08/01 04:12:58;;;;;;;3.30;1.83;;;20.90;53.30;;;;;;6239960;28;20033;-74
2021/08/01 04:15:59;;;;;;;3.30;1.65;;;21.00;53.30;;;;;;6223545;28;20038;-73
2021/08/01 04:19:00;;;;;;;2.55;1.50;;;20.90;53.10;;;;;;6239623;28;20040;-74
2021/08/01 04:22:01;;;;;;;3.65;1.77;;;20.90;53.10;;;;;;6223704;28;20038;-74
2021/08/01 04:25:03;;;;;;;3.40;1.58;;;20.90;53.20;;;;;;6206814;28;20036;-74
2021/08/01 04:28:04;;;;;;;5.45;1.42;;;20.90;53.20;;;;;;6239457;28;20058;-74
2021/08/01 04:31:05;;;;;;;2.75;1.52;;;20.90;53.20;;;;;;6239451;28;20025;-74
2021/08/01 04:34:06;;;;;;;5.38;2.05;;;20.90;53.30;;;;;;6239243;28;20478;-74
2021/08/01 04:37:07;;;;;;;2.85;1.40;;;20.90;53.20;;;;;;6223617;28;20337;-74
2021/08/01 04:40:08;;;;;;;2.47;1.60;;;20.90;53.30;;;;;;6234840;28;20049;-74
2021/08/01 04:43:09;;;;;;;3.40;1.45;;;20.90;53.30;;;;;;6205400;28;20036;-74
2021/08/01 04:46:10;;;;;;;5.40;1.70;;;20.90;53.30;;;;;;6222305;28;20470;-74
2021/08/01 04:49:11;;;;;;;2.05;1.40;;;20.80;53.30;;;;;;6229510;28;20076;-74
2021/08/01 04:52:17;;;;;;;5.28;1.73;;;20.90;53.30;;;;;;6239216;28;20050;-74
2021/08/01 04:55:21;;;;;;;3.08;1.27;;;20.90;53.30;;;;;;6223585;28;20050;-74
2021/08/01 04:58:22;;;;;;;2.28;1.58;;;20.90;53.20;;;;;;6239720;28;20045;-74
2021/08/01 05:01:23;;;;;;;6.25;1.92;;;20.90;53.10;;;;;;6223142;28;20046;-73
2021/08/01 05:04:24;;;;;;;6.70;2.05;;;20.90;53.00;;;;;;6239457;28;20355;-74
2021/08/01 05:07:25;;;;;;;3.53;1.67;;;20.90;53.00;;;;;;6224610;28;20037;-75
2021/08/01 05:10:26;;;;;;;2.35;1.38;;;20.90;53.00;;;;;;6239593;28;20046;-74
2021/08/01 05:13:27;;;;;;;3.13;1.30;;;20.90;53.10;;;;;;6224145;28;20057;-74
2021/08/01 05:16:28;;;;;;;5.32;1.98;;;20.90;53.10;;;;;;6215603;28;20096;-74
2021/08/01 05:19:29;;;;;;;3.50;1.77;;;21.00;53.00;;;;;;6222708;28;20104;-74
2021/08/01 05:22:30;;;;;;;4.65;1.35;;;21.00;52.90;;;;;;6239323;28;20038;-74
2021/08/01 05:25:31;;;;;;;2.60;1.33;;;21.00;52.90;;;;;;6223863;28;20459;-75
2021/08/01 05:28:32;;;;;;;3.60;1.95;;;21.00;52.90;;;;;;6238986;28;20073;-76
2021/08/01 05:31:33;;;;;;;4.32;1.48;;;21.00;53.40;;;;;;6222794;28;20351;-74
2021/08/01 05:34:34;;;;;;;2.50;1.15;;;21.00;53.60;;;;;;6224397;28;20115;-75
2021/08/01 05:37:35;;;;;;;4.05;1.48;;;21.00;53.80;;;;;;6222418;28;20072;-74
2021/08/01 05:40:36;;;;;;;3.92;1.48;;;20.90;54.00;;;;;;6222392;28;20030;-74
2021/08/01 05:43:39;;;;;;;4.13;1.52;;;20.90;54.10;;;;;;6239001;28;20080;-74
2021/08/01 05:46:40;;;;;;;2.15;1.40;;;20.90;54.50;;;;;;6238706;28;20030;-75
2021/08/01 05:49:41;;;;;;;2.50;1.70;;;20.90;54.50;;;;;;6238674;28;20041;-75
2021/08/01 05:52:43;;;;;;;2.75;1.60;;;20.90;54.60;;;;;;6222086;28;20045;-74
2021/08/01 05:55:44;;;;;;;3.80;1.60;;;21.00;54.50;;;;;;6205730;28;20038;-74
2021/08/01 05:58:46;;;;;;;1.70;1.33;;;21.00;54.70;;;;;;6219324;28;20052;-74
2021/08/01 06:01:47;;;;;;;1.70;1.50;;;21.00;55.00;;;;;;6223061;28;20905;-74
2021/08/01 06:04:50;;;;;;;4.82;1.67;;;21.00;55.70;;;;;;6223798;28;20044;-74
2021/08/01 06:07:51;;;;;;;1.70;1.35;;;21.00;56.10;;;;;;6222749;28;20529;-74
2021/08/01 06:10:52;;;;;;;1.80;1.25;;;21.00;56.50;;;;;;6238267;28;20038;-74
2021/08/01 06:13:53;;;;;;;2.67;1.90;;;21.00;56.70;;;;;;6237963;28;20038;-74
2021/08/01 06:16:55;;;;;;;2.13;1.50;;;21.00;56.90;;;;;;6238180;28;20034;-74
2021/08/01 06:19:57;;;;;;;4.75;1.75;;;21.00;56.80;;;;;;6222671;28;20531;-74
2021/08/01 06:22:58;;;;;;;3.72;1.60;;;21.00;56.80;;;;;;6222862;28;20072;-74
2021/08/01 06:25:59;;;;;;;2.65;1.38;;;21.00;56.80;;;;;;6221814;28;20467;-73
2021/08/01 06:29:00;;;;;;;6.15;1.90;;;21.10;56.60;;;;;;6222761;28;20049;-73
2021/08/01 06:32:01;;;;;;;2.40;1.58;;;21.10;56.60;;;;;;6222642;28;20355;-74
2021/08/01 06:35:02;;;;;;;4.72;1.80;;;21.20;56.50;;;;;;6232732;28;20034;-73
2021/08/01 06:38:04;;;;;;;6.28;2.00;;;21.20;56.30;;;;;;6244249;28;20093;-74
2021/08/01 06:41:06;;;;;;;2.33;1.58;;;21.30;56.10;;;;;;6243084;28;20449;-73
2021/08/01 06:44:07;;;;;;;5.68;1.58;;;21.30;56.00;;;;;;6222717;28;20414;-74
2021/08/01 06:47:08;;;;;;;4.40;1.27;;;21.40;55.90;;;;;;6238119;28;20455;-75
2021/08/01 06:50:09;;;;;;;2.58;1.38;;;21.50;55.50;;;;;;6236544;28;20049;-75
2021/08/01 06:53:11;;;;;;;1.90;1.60;;;21.60;55.30;;;;;;6220994;28;20135;-75
2021/08/01 06:56:12;;;;;;;2.83;1.50;;;21.70;55.20;;;;;;6222236;28;20044;-76
2021/08/01 06:59:13;;;;;;;1.88;1.40;;;21.80;54.90;;;;;;6231581;28;20049;-73
2021/08/01 07:02:14;;;;;;;2.22;1.25;;;21.80;54.80;;;;;;6220886;28;20041;-73
2021/08/01 07:05:15;;;;;;;5.47;1.33;;;21.80;54.90;;;;;;6237830;28;20459;-73
2021/08/01 07:08:16;;;;;;;1.48;1.17;;;21.90;55.00;;;;;;6220907;28;20089;-73
2021/08/01 07:11:17;;;;;;;1.35;1.08;;;21.90;55.00;;;;;;6220900;28;20041;-74
2021/08/01 07:14:18;;;;;;;2.72;1.50;;;21.90;55.10;;;;;;6236311;28;20037;-75
2021/08/01 07:17:21;;;;;;;1.83;1.30;;;21.90;55.10;;;;;;6220157;28;20112;-75
2021/08/01 07:20:23;;;;;;;1.25;1.10;;;21.80;55.10;;;;;;6221821;28;20068;-74
2021/08/01 07:23:27;;;;;;;2.38;1.40;;;21.90;55.10;;;;;;6220877;28;20125;-73
2021/08/01 07:26:28;;;;;;;3.50;1.45;;;21.80;55.20;;;;;;6222634;28;20080;-73
2021/08/01 07:29:29;;;;;;;2.65;1.98;;;21.80;55.30;;;;;;6225042;28;20360;-73
2021/08/01 07:32:30;;;;;;;2.53;1.88;;;21.80;54.90;;;;;;6208787;28;20064;-74
2021/08/01 07:35:31;;;;;;;5.57;2.42;;;21.80;54.70;;;;;;6226893;28;20037;-73
2021/08/01 07:38:32;;;;;;;5.65;2.85;;;21.80;54.40;;;;;;6240586;28;20084;-75
2021/08/01 07:41:33;;;;;;;3.30;2.00;;;21.80;54.20;;;;;;6224805;28;20033;-74
2021/08/01 07:44:46;;;;;;;3.88;2.80;;;21.80;53.90;;;;;;6225120;28;20470;-74
2021/08/01 07:47:47;;;;;;;8.00;2.30;;;21.70;53.80;;;;;;6238835;28;20022;-74
2021/08/01 07:50:48;;;;;;;7.10;2.50;;;21.70;53.80;;;;;;6224711;28;20073;-74
2021/08/01 07:53:49;;;;;;;2.75;1.55;;;21.70;54.00;;;;;;6239929;28;20121;-74
2021/08/01 07:56:50;;;;;;;2.65;1.33;;;21.70;54.50;;;;;;6224565;28;20104;-74
2021/08/01 07:59:51;;;;;;;1.95;1.40;;;21.70;55.00;;;;;;6239284;28;20481;-74
2021/08/01 08:02:52;;;;;;;3.28;1.58;;;21.70;55.30;;;;;;6223164;28;20034;-74
2021/08/01 08:05:53;;;;;;;3.08;1.70;;;21.70;55.60;;;;;;6239840;28;20117;-74
2021/08/01 08:08:55;;;;;;;2.92;1.80;;;21.70;55.50;;;;;;6222897;28;20108;-74
2021/08/01 08:11:56;;;;;;;2.03;1.40;;;21.70;55.40;;;;;;6222782;28;20030;-74
2021/08/01 08:14:57;;;;;;;3.28;2.03;;;21.80;55.60;;;;;;6222641;28;20041;-74
2021/08/01 08:17:59;;;;;;;2.72;1.52;;;21.80;55.80;;;;;;6239204;28;20129;-75
2021/08/01 08:21:00;;;;;;;2.55;1.75;;;21.80;55.90;;;;;;6238497;28;20096;-74
2021/08/01 08:24:01;;;;;;;5.28;1.40;;;21.80;56.00;;;;;;6224076;28;20116;-74
2021/08/01 08:27:03;;;;;;;1.98;1.20;;;21.90;56.00;;;;;;6223935;28;20030;-74
2021/08/01 08:30:06;;;;;;;2.25;1.40;;;21.90;56.00;;;;;;6205910;28;20482;-75
2021/08/01 08:33:08;;;;;;;2.55;1.20;;;21.90;56.00;;;;;;6219792;28;20033;-74
2021/08/01 08:36:09;;;;;;;1.63;1.10;;;21.90;56.00;;;;;;6223250;28;20054;-75
2021/08/01 08:39:10;;;;;;;1.95;1.20;;;22.00;56.00;;;;;;6222925;28;20124;-75
2021/08/01 08:42:14;;;;;;;6.88;1.98;;;22.10;56.10;;;;;;6238884;28;20052;-75
2021/08/01 08:45:15;;;;;;;8.38;2.08;;;22.10;56.00;;;;;;6239491;28;20088;-73
2021/08/01 08:48:18;;;;;;;7.82;2.75;;;22.10;56.00;;;;;;6223333;28;20037;-74
2021/08/01 08:51:19;;;;;;;13.32;3.22;;;22.10;55.60;;;;;;6224504;28;20116;-74
2021/08/01 08:54:44;;;;;;;6.22;2.92;;;22.20;55.30;;;;;;6223950;28;20033;-74
2021/08/01 08:57:50;;;;;;;7.65;2.92;;;22.20;54.80;;;;;;6221010;28;20042;-74
2021/08/01 09:00:51;;;;;;;4.10;2.50;;;22.40;54.30;;;;;;6238739;28;20041;-75
2021/08/01 09:03:52;;;;;;;5.80;2.95;;;22.50;53.90;;;;;;6237051;28;20348;-75
2021/08/01 09:06:55;;;;;;;5.90;2.85;;;22.70;53.60;;;;;;6214568;28;20030;-75
2021/08/01 09:09:56;;;;;;;4.95;2.80;;;22.80;53.10;;;;;;6213594;28;20412;-75
2021/08/01 09:12:56;;;;;;;6.20;2.92;;;22.90;52.70;;;;;;6198278;28;20031;-75
2021/08/01 09:15:58;;;;;;;5.60;2.92;;;23.00;52.40;;;;;;6213145;28;20378;-75
2021/08/01 09:18:59;;;;;;;7.88;2.70;;;23.10;51.90;;;;;;6213588;28;20031;-75
2021/08/01 09:22:22;;;;;;;8.50;3.22;;;23.10;51.50;;;;;;6198548;28;20030;-75
2021/08/01 09:25:27;;;;;;;6.22;2.70;;;23.10;51.20;;;;;;6228087;28;20407;-75
2021/08/01 09:28:29;;;;;;;6.30;2.50;;;23.20;51.10;;;;;;6196858;28;20069;-75
2021/08/01 09:31:30;;;;;;;4.65;3.03;;;23.20;50.90;;;;;;6212131;28;20045;-74
2021/08/01 09:34:31;;;;;;;4.15;2.90;;;23.20;51.20;;;;;;6216073;28;20112;-74
2021/08/01 09:37:34;;;;;;;3.63;2.50;;;23.20;50.30;;;;;;6221312;28;20124;-75
2021/08/01 09:40:35;;;;;;;5.35;2.63;;;23.20;50.50;;;;;;6235977;28;20026;-75
2021/08/01 09:43:47;;;;;;;3.85;2.03;;;23.20;50.40;;;;;;6236349;28;20026;-75
2021/08/01 09:46:50;;;;;;;6.68;3.05;;;23.20;50.30;;;;;;6202427;28;20034;-75
2021/08/01 09:50:08;;;;;;;8.15;2.65;;;23.30;50.30;;;;;;6218695;28;20422;-75
2021/08/01 09:53:12;;;;;;;4.43;2.42;;;23.30;50.30;;;;;;6235019;28;20034;-73
2021/08/01 09:56:15;;;;;;;3.50;2.10;;;23.40;50.00;;;;;;6220776;28;20111;-76
2021/08/01 09:59:21;;;;;;;4.15;2.08;;;23.40;49.80;;;;;;6235420;28;20088;-74
2021/08/01 10:02:38;;;;;;;2.58;2.08;;;23.60;49.60;;;;;;6236816;28;20029;-74
2021/08/01 10:05:42;;;;;;;4.35;2.10;;;23.60;49.60;;;;;;6236023;28;20084;-75
2021/08/01 10:08:45;;;;;;;3.50;1.88;;;23.60;50.00;;;;;;6235559;28;20057;-74
2021/08/01 10:11:53;;;;;;;3.10;2.00;;;23.70;50.60;;;;;;6231293;28;20504;-75
2021/08/01 10:14:55;;;;;;;1.52;1.40;;;23.70;51.00;;;;;;6229259;28;20044;-75
2021/08/01 10:17:58;;;;;;;4.38;2.03;;;23.80;51.40;;;;;;6227964;28;20443;-74
2021/08/01 10:20:59;;;;;;;4.22;2.00;;;23.80;51.50;;;;;;6235753;28;20034;-74
2021/08/01 10:24:01;;;;;;;3.85;1.95;;;23.90;51.70;;;;;;6236772;28;20092;-74
2021/08/01 10:27:07;;;;;;;1.83;1.42;;;23.90;51.80;;;;;;6221601;28;20044;-74
2021/08/01 10:30:08;;;;;;;5.82;1.83;;;24.00;51.80;;;;;;6237665;28;20341;-74
2021/08/01 10:33:13;;;;;;;3.47;1.50;;;24.10;51.70;;;;;;6238071;28;20030;-74
2021/08/01 10:36:23;;;;;;;2.13;1.33;;;24.00;51.40;;;;;;6238678;28;20030;-74
2021/08/01 10:39:29;;;;;;;2.55;1.52;;;24.20;51.30;;;;;;6238670;28;20041;-74
2021/08/01 10:42:32;;;;;;;2.03;1.30;;;24.20;51.20;;;;;;6223691;28;20037;-75
2021/08/01 10:45:36;;;;;;;5.75;1.65;;;24.30;51.00;;;;;;6238663;28;20076;-75
2021/08/01 10:48:37;;;;;;;3.20;1.30;;;24.50;50.90;;;;;;6239030;28;20351;-75
2021/08/01 10:51:39;;;;;;;2.50;1.60;;;24.60;50.70;;;;;;6222557;28;20125;-75
2021/08/01 10:54:57;;;;;;;2.08;1.35;;;24.70;50.40;;;;;;6238717;28;20046;-75
2021/08/01 10:58:33;;;;;;;3.65;1.58;;;24.90;50.20;;;;;;6236763;28;20029;-75
2021/08/01 11:02:33;;;;;;;3.78;1.30;;;25.30;49.70;;;;;;6133422;29;20059;-74
2021/08/01 11:05:36;;;;;;;3.53;1.33;;;25.70;48.80;;;;;;6067558;29;20041;-74
2021/08/01 11:09:07;;;;;;;3.08;1.55;;;25.90;48.00;;;;;;6048752;29;20053;-74
2021/08/01 11:12:26;;;;;;;1.60;1.20;;;26.10;47.80;;;;;;6040835;29;20049;-74
2021/08/01 11:15:45;;;;;;;3.20;1.65;;;26.20;47.40;;;;;;6040173;29;20033;-74
2021/08/01 11:18:46;;;;;;;2.05;1.52;;;26.30;47.20;;;;;;6040102;29;20462;-74
2021/08/01 11:21:47;;;;;;;3.25;1.60;;;26.60;46.80;;;;;;6024656;29;20037;-75
2021/08/01 11:25:25;;;;;;;2.60;1.48;;;27.30;45.60;;;;;;6055580;29;20078;-75
2021/08/01 11:28:29;;;;;;;4.72;1.40;;;28.20;44.10;;;;;;6054334;29;20049;-75
2021/08/01 11:31:32;;;;;;;3.55;1.38;;;28.80;42.70;;;;;;6040141;29;20048;-75
2021/08/01 11:34:34;;;;;;;2.58;1.45;;;29.00;42.00;;;;;;6026148;29;20490;-74
2021/08/01 11:37:36;;;;;;;3.90;1.20;;;29.40;40.80;;;;;;6189282;28;20079;-75
2021/08/01 11:40:46;;;;;;;6.80;1.45;;;29.40;40.10;;;;;;6223926;28;20050;-75
2021/08/01 11:44:17;;;;;;;2.88;1.40;;;29.40;39.60;;;;;;6238173;28;20111;-74
2021/08/01 11:47:18;;;;;;;6.40;1.50;;;29.30;39.50;;;;;;6223909;28;20131;-75
2021/08/01 11:50:28;;;;;;;2.47;1.40;;;29.10;39.30;;;;;;6239128;28;20046;-74
2021/08/01 11:53:29;;;;;;;3.40;1.45;;;28.90;39.50;;;;;;6223737;28;20049;-75
2021/08/01 11:56:32;;;;;;;2.65;1.23;;;28.80;39.40;;;;;;6233552;28;20134;-74
2021/08/01 11:59:34;;;;;;;3.50;1.85;;;28.60;39.50;;;;;;6223500;28;20045;-74
2021/08/01 12:02:35;;;;;;;6.07;1.95;;;28.60;39.50;;;;;;6224710;28;20552;-74
2021/08/01 12:05:43;;;;;;;2.15;1.50;;;28.50;39.50;;;;;;6240241;28;20363;-74
2021/08/01 12:08:44;;;;;;;;;;;29.00;39.20;;;;;;6223386;28;20037;-74
2021/08/01 12:11:52;;;;;;;5.43;1.77;;;29.40;38.30;;;;;;6238190;28;19913;-73
2021/08/01 12:14:55;;;;;;;5.70;2.08;;;29.20;38.30;;;;;;6223924;28;20371;-74
2021/08/01 12:17:56;;;;;;;2.92;1.90;;;29.00;38.70;;;;;;6224358;28;20205;-75
2021/08/01 12:20:57;;;;;;;5.68;1.60;;;29.20;38.50;;;;;;6223162;28;20046;-76
2021/08/01 12:23:58;;;;;;;3.38;1.70;;;29.20;38.00;;;;;;6224373;28;20080;-74
2021/08/01 12:27:00;;;;;;;2.42;1.52;;;29.10;38.00;;;;;;6222986;28;20073;-75
2021/08/01 12:30:04;;;;;;;4.18;1.63;;;28.90;38.10;;;;;;6239415;28;20415;-74
2021/08/01 12:33:06;;;;;;;5.22;1.52;;;28.60;38.20;;;;;;6240569;28;20034;-76
2021/08/01 12:36:07;;;;;;;3.05;1.80;;;28.20;38.90;;;;;;6223911;28;20339;-75
2021/08/01 12:39:08;;;;;;;5.93;1.98;;;27.90;39.40;;;;;;6240213;28;20037;-75
2021/08/01 12:42:09;;;;;;;2.25;1.45;;;27.60;39.80;;;;;;6225023;28;20038;-74
2021/08/01 12:45:10;;;;;;;3.08;1.55;;;27.30;40.50;;;;;;6223660;28;20042;-74
2021/08/01 12:48:19;;;;;;;3.45;1.65;;;26.90;41.20;;;;;;6224417;28;20070;-75
2021/08/01 12:51:20;;;;;;;6.38;1.85;;;26.70;41.90;;;;;;6239459;28;20034;-75
2021/08/01 12:54:21;;;;;;;3.00;1.77;;;26.40;42.70;;;;;;6224486;28;20037;-74
2021/08/01 12:57:23;;;;;;;6.70;1.65;;;26.30;43.70;;;;;;6239509;28;20034;-74
2021/08/01 13:00:29;;;;;;;3.47;1.92;;;26.30;44.80;;;;;;6223578;28;20034;-74
2021/08/01 13:03:30;;;;;;;6.68;1.65;;;26.40;45.10;;;;;;6223871;28;20049;-74
2021/08/01 13:06:32;;;;;;;3.25;1.67;;;26.50;45.20;;;;;;6240069;28;20467;-74
2021/08/01 13:09:33;;;;;;;5.45;1.75;;;26.60;45.10;;;;;;6239294;28;20042;-75
2021/08/01 13:12:34;;;;;;;4.88;2.00;;;26.90;44.20;;;;;;6239231;28;20034;-74
2021/08/01 13:15:39;;;;;;;5.28;1.60;;;27.40;43.10;;;;;;6239286;28;20340;-76
2021/08/01 13:18:40;;;;;;;3.53;1.20;;;28.30;41.30;;;;;;6239142;28;20120;-75
2021/08/01 13:21:42;;;;;;;1.65;1.33;;;29.40;39.00;;;;;;6238974;28;20064;-75
2021/08/01 13:24:48;;;;;;;3.08;1.60;;;30.50;37.00;;;;;;6239128;28;20041;-74
2021/08/01 13:27:50;;;;;;;2.53;1.38;;;31.20;35.60;;;;;;6223619;28;20463;-76
2021/08/01 13:31:04;;;;;;;5.07;1.38;;;31.40;34.80;;;;;;6223217;28;20502;-74
2021/08/01 13:34:10;;;;;;;2.08;1.15;;;31.10;34.80;;;;;;6238690;28;20030;-75
2021/08/01 13:37:19;;;;;;;1.80;1.33;;;30.60;35.30;;;;;;6237721;28;20219;-75
2021/08/01 13:40:29;;;;;;;2.35;1.27;;;30.40;35.60;;;;;;6238079;28;20044;-74
2021/08/01 13:43:30;;;;;;;2.08;1.27;;;30.80;35.40;;;;;;6238681;28;20030;-74
2021/08/01 13:46:31;;;;;;;3.40;1.55;;;32.70;32.70;;;;;;6237908;28;20363;-74
2021/08/01 13:49:32;;;;;;;3.13;1.27;;;35.20;29.90;;;;;;6237354;28;20048;-75
2021/08/01 13:52:35;;;;;;;1.83;1.17;;;36.90;27.60;;;;;;6238327;28;20041;-74
2021/08/01 13:55:36;;;;;;;4.55;1.60;;;37.70;26.60;;;;;;6222588;28;20113;-75
2021/08/01 13:58:37;;;;;;;2.92;1.20;;;38.30;25.90;;;;;;6238054;28;20041;-76
2021/08/01 14:01:38;;;;;;;1.92;1.10;;;39.30;25.10;;;;;;6223097;28;20481;-77
2021/08/01 14:04:39;;;;;;;4.10;1.05;;;40.00;24.10;;;;;;6220958;28;20038;-76
2021/08/01 14:07:40;;;;;;;1.92;1.30;;;40.60;23.50;;;;;;6220788;28;20470;-75
2021/08/01 14:10:41;;;;;;;4.63;1.30;;;40.20;23.50;;;;;;6221507;28;20344;-75
2021/08/01 14:13:42;;;;;;;1.63;1.50;;;38.30;24.60;;;;;;6223080;28;20080;-75
2021/08/01 14:16:43;;;;;;;2.72;1.40;;;36.30;26.40;;;;;;6222754;28;20459;-76
2021/08/01 14:19:44;;;;;;;2.28;1.27;;;34.60;28.10;;;;;;6221411;28;20127;-75
2021/08/01 14:22:46;;;;;;;4.25;1.33;;;33.10;29.80;;;;;;6238079;28;20030;-75
2021/08/01 14:25:47;;;;;;;6.43;1.60;;;31.90;31.30;;;;;;6238206;28;20029;-74
2021/08/01 14:28:49;;;;;;;4.30;1.60;;;30.80;33.60;;;;;;6221672;28;20121;-77
2021/08/01 14:31:52;;;;;;;3.20;1.85;;;30.00;34.50;;;;;;6237875;28;20113;-76
2021/08/01 14:34:53;;;;;;;2.15;1.52;;;29.20;36.00;;;;;;6238424;28;20030;-74
2021/08/01 14:37:54;;;;;;;2.63;1.60;;;28.60;37.20;;;;;;6237753;28;20037;-76
2021/08/01 14:40:58;;;;;;;2.53;1.52;;;28.10;38.20;;;;;;6222654;28;20049;-77
2021/08/01 14:44:01;;;;;;;2.25;1.80;;;27.70;39.20;;;;;;6238443;28;20113;-74
2021/08/01 14:47:09;;;;;;;3.53;1.60;;;27.50;40.50;;;;;;6221997;28;20026;-75
2021/08/01 14:50:28;;;;;;;5.10;1.70;;;27.20;41.10;;;;;;6220758;28;20046;-75
2021/08/01 14:53:29;;;;;;;3.75;1.77;;;27.10;41.40;;;;;;6238565;28;20459;-77
2021/08/01 14:56:30;;;;;;;2.35;1.60;;;27.10;41.40;;;;;;6222886;28;20038;-75
2021/08/01 14:59:36;;;;;;;2.30;1.55;;;27.00;41.40;;;;;;6240843;28;20121;-76
2021/08/01 15:02:41;;;;;;;4.95;1.88;;;27.00;41.40;;;;;;6239384;28;20459;-76
2021/08/01 15:06:03;;;;;;;2.67;1.42;;;27.00;41.20;;;;;;6240209;28;20367;-76
2021/08/01 15:09:08;;;;;;;2.20;1.80;;;27.10;41.10;;;;;;6235821;28;20037;-75
2021/08/01 15:12:13;;;;;;;2.90;1.67;;;27.20;40.80;;;;;;6236212;28;20045;-76
2021/08/01 15:15:19;;;;;;;2.80;1.45;;;27.30;40.60;;;;;;6220165;28;20037;-74
2021/08/01 15:18:25;;;;;;;3.72;1.65;;;27.30;40.50;;;;;;6235287;28;20038;-74
2021/08/01 15:21:27;;;;;;;10.13;2.78;;;27.40;40.50;;;;;;6236034;28;20351;-74
2021/08/01 15:24:40;;;;;;;6.93;2.92;;;27.50;40.30;;;;;;6221278;28;20038;-75
2021/08/01 15:27:42;;;;;;;3.53;1.60;;;27.50;40.30;;;;;;6238844;28;20034;-75
2021/08/01 15:30:44;;;;;;;2.33;1.42;;;27.50;40.30;;;;;;6228527;28;20053;-73
2021/08/01 15:33:46;;;;;;;2.25;1.33;;;27.50;40.10;;;;;;6238411;28;20038;-74
2021/08/01 15:36:48;;;;;;;4.43;1.35;;;27.60;40.00;;;;;;6226174;28;20030;-74
2021/08/01 15:39:49;;;;;;;1.20;1.10;;;27.70;40.00;;;;;;6246095;28;20375;-74
2021/08/01 15:42:53;;;;;;;3.33;1.30;;;27.70;39.90;;;;;;6222793;28;20362;-74
2021/08/01 15:45:59;;;;;;;2.97;1.85;;;27.70;40.00;;;;;;6222403;28;20034;-73
2021/08/01 15:49:00;;;;;;;1.65;1.25;;;27.70;40.30;;;;;;6239684;28;20461;-74
2021/08/01 15:52:05;;;;;;;2.92;2.08;;;27.80;40.30;;;;;;6226243;28;20057;-74
2021/08/01 15:55:15;;;;;;;2.28;1.20;;;28.20;40.00;;;;;;6241308;28;20057;-75
2021/08/01 15:58:22;;;;;;;3.58;1.33;;;29.30;38.50;;;;;;6241718;28;20049;-74
2021/08/01 16:01:30;;;;;;;4.60;1.20;;;30.30;36.60;;;;;;6225767;28;20042;-75